Time;durP1;ratioP1;P1;durP2;ratioP2;P2;SDS_P1;SDS_P2;PMS_P1;PMS_P2;Temp;Humidity;BMP_temperature;BMP_pressure;BME280_temperature;BME280_humidity;BME280_pressure;Samples;Min_cycle;Max_cycle;Signal;HPM_P1;HPM_P2
2022/07/01 00:01:30;;;;;;;6.23;5.63;;;;;;;21.00;77.26;100364.56;4999881;28;20215;-83
2022/07/01 00:03:57;;;;;;;7.07;5.03;;;;;;;20.95;77.75;100379.66;4997581;28;20912;-86
2022/07/01 00:06:24;;;;;;;6.60;5.30;;;;;;;20.91;77.98;100375.59;4998126;28;20615;-83
2022/07/01 00:08:52;;;;;;;6.90;5.30;;;;;;;20.87;78.25;100376.94;4995018;28;20220;-84
2022/07/01 00:11:18;;;;;;;7.83;4.90;;;;;;;20.86;78.25;100380.66;4992251;28;20755;-85
2022/07/01 00:13:45;;;;;;;5.63;5.13;;;;;;;20.85;78.45;100379.81;4999397;28;20215;-84
2022/07/01 00:16:13;;;;;;;5.50;5.00;;;;;;;20.83;78.53;100386.41;4993469;28;20232;-84
2022/07/01 00:18:40;;;;;;;5.70;5.03;;;;;;;20.79;78.59;100384.03;4995093;28;20208;-83
2022/07/01 00:21:07;;;;;;;7.57;6.07;;;;;;;20.76;78.46;100392.53;5002742;28;20652;-84
2022/07/01 00:23:33;;;;;;;6.33;5.73;;;;;;;20.74;78.66;100397.25;5005710;28;20221;-87
2022/07/01 00:26:00;;;;;;;6.67;6.07;;;;;;;20.72;78.73;100395.72;5006037;28;20223;-83
2022/07/01 00:28:27;;;;;;;7.83;7.13;;;;;;;20.70;78.44;100398.59;4998351;28;20288;-82
2022/07/01 00:30:53;;;;;;;7.83;6.70;;;;;;;20.69;78.54;100402.31;4991943;28;20206;-83
2022/07/01 00:33:21;;;;;;;8.37;7.57;;;;;;;20.66;78.68;100404.50;4999529;28;20310;-84
2022/07/01 00:35:48;;;;;;;9.20;8.40;;;;;;;20.63;78.51;100413.81;5006842;28;20215;-84
2022/07/01 00:38:15;;;;;;;9.70;8.83;;;;;;;20.59;78.69;100401.66;4992692;28;20837;-85
2022/07/01 00:40:42;;;;;;;9.53;8.57;;;;;;;20.55;78.88;100408.41;4995750;28;20301;-84
2022/07/01 00:43:08;;;;;;;10.37;8.43;;;;;;;20.51;78.66;100415.16;4989422;28;20237;-85
2022/07/01 00:45:35;;;;;;;11.30;10.30;;;;;;;20.46;78.65;100422.91;5002294;28;20218;-85
2022/07/01 00:48:06;;;;;;;11.07;10.17;;;;;;;20.40;78.64;100421.75;4995215;28;20261;-85
2022/07/01 00:50:34;;;;;;;10.73;9.83;;;;;;;20.33;78.37;100422.53;4996899;28;20214;-84
2022/07/01 00:53:01;;;;;;;11.40;10.23;;;;;;;20.25;78.38;100419.78;4985311;28;20628;-85
2022/07/01 00:55:28;;;;;;;10.90;9.90;;;;;;;20.16;78.50;100415.38;4991505;28;20300;-84
2022/07/01 00:57:57;;;;;;;10.37;9.47;;;;;;;20.10;78.51;100417.72;5002830;28;20236;-85
2022/07/01 01:00:25;;;;;;;10.27;9.47;;;;;;;20.03;78.49;100421.25;5002700;28;20246;-85
2022/07/01 01:02:52;;;;;;;10.13;9.23;;;;;;;19.97;78.65;100422.75;4998111;28;21233;-85
2022/07/01 01:05:21;;;;;;;9.57;8.77;;;;;;;19.94;78.76;100422.22;5004310;28;20218;-84
2022/07/01 01:07:50;;;;;;;10.27;9.43;;;;;;;19.89;78.51;100436.22;4994924;28;20229;-85
2022/07/01 01:10:17;;;;;;;9.17;8.33;;;;;;;19.83;78.74;100423.38;4996725;28;20215;-85
2022/07/01 01:12:44;;;;;;;8.53;7.67;;;;;;;19.75;78.60;100426.88;4995251;28;20688;-84
2022/07/01 01:15:11;;;;;;;8.37;7.57;;;;;;;19.72;78.66;100429.91;5003062;28;20241;-85
2022/07/01 01:17:38;;;;;;;8.60;7.80;;;;;;;19.66;78.78;100441.38;5001702;28;20237;-84
2022/07/01 01:20:06;;;;;;;8.77;8.07;;;;;;;19.60;78.53;100451.97;4993199;28;20204;-85
2022/07/01 01:22:34;;;;;;;8.30;7.40;;;;;;;19.54;78.75;100452.59;5000217;28;20298;-84
2022/07/01 01:25:00;;;;;;;8.83;8.03;;;;;;;19.47;78.75;100462.31;4998937;28;20239;-85
2022/07/01 01:27:27;;;;;;;8.20;7.27;;;;;;;19.40;78.75;100478.28;4997950;28;20253;-85
2022/07/01 01:29:54;;;;;;;7.90;7.30;;;;;;;19.37;79.02;100490.25;5002290;28;20261;-84
2022/07/01 01:32:20;;;;;;;7.40;6.80;;;;;;;19.35;79.28;100480.63;4990747;28;20311;-84
2022/07/01 01:34:47;;;;;;;7.83;6.93;;;;;;;19.29;79.32;100467.75;4998469;28;20213;-85
2022/07/01 01:37:17;;;;;;;7.63;6.97;;;;;;;19.27;79.01;100456.28;5006328;28;20232;-85
2022/07/01 01:39:59;;;;;;;7.83;7.13;;;;;;;19.22;78.81;100458.59;5003137;28;20298;-85
2022/07/01 01:42:28;;;;;;;7.60;6.90;;;;;;;19.15;78.82;100455.69;5008122;28;20294;-85
2022/07/01 01:44:55;;;;;;;8.80;8.10;;;;;;;19.13;78.92;100463.09;5000256;28;20253;-85
2022/07/01 01:47:24;;;;;;;7.60;7.00;;;;;;;19.10;79.27;100470.66;5008688;28;20697;-85
2022/07/01 01:49:53;;;;;;;8.30;7.60;;;;;;;19.04;79.40;100478.34;5010718;28;20209;-85
2022/07/01 01:52:20;;;;;;;8.17;7.57;;;;;;;19.02;79.32;100476.81;5001855;28;20223;-85
2022/07/01 01:54:49;;;;;;;8.57;7.87;;;;;;;19.00;79.74;100481.50;4994785;28;20221;-85
2022/07/01 01:57:17;;;;;;;7.77;7.17;;;;;;;18.95;79.90;100475.75;5005855;28;20241;-85
2022/07/01 01:59:44;;;;;;;8.77;8.00;;;;;;;18.91;79.92;100490.56;5000024;28;20222;-85
2022/07/01 02:02:11;;;;;;;7.67;6.87;;;;;;;18.85;79.94;100494.72;4997639;28;20205;-85
2022/07/01 02:04:46;;;;;;;6.57;5.97;;;;;;;18.84;80.29;100494.84;4998931;28;20214;-85
2022/07/01 02:07:13;;;;;;;5.80;5.17;;;;;;;18.84;79.89;100509.19;5008401;28;20699;-86
2022/07/01 02:09:41;;;;;;;6.80;5.00;;;;;;;18.79;79.78;100508.84;5008540;28;20210;-86
2022/07/01 02:12:10;;;;;;;5.43;4.93;;;;;;;18.76;79.66;100521.78;5003322;28;20276;-85
2022/07/01 02:14:38;;;;;;;4.70;4.20;;;;;;;18.71;79.60;100520.38;4999977;28;20206;-85
2022/07/01 02:17:05;;;;;;;4.00;3.70;;;;;;;18.71;79.53;100525.78;4991041;28;20271;-85
2022/07/01 02:19:32;;;;;;;5.17;3.57;;;;;;;18.68;79.41;100523.38;4997615;28;20276;-85
2022/07/01 02:21:59;;;;;;;5.07;3.70;;;;;;;18.65;79.44;100523.66;4999068;28;20384;-85
2022/07/01 02:24:26;;;;;;;3.83;3.50;;;;;;;18.63;79.33;100533.75;5003428;28;20205;-85
2022/07/01 02:26:58;;;;;;;4.73;3.70;;;;;;;18.62;79.42;100531.25;4995868;28;20317;-85
2022/07/01 02:29:24;;;;;;;3.03;2.80;;;;;;;18.61;79.38;100534.94;4987593;28;20206;-84
2022/07/01 02:31:53;;;;;;;3.50;3.00;;;;;;;18.59;79.66;100536.94;4995499;28;20304;-85
2022/07/01 02:34:19;;;;;;;2.43;1.70;;;;;;;18.55;79.01;100539.06;4990294;28;20301;-84
2022/07/01 02:36:46;;;;;;;1.40;0.97;;;;;;;18.52;78.51;100547.44;4997552;28;20258;-84
2022/07/01 02:39:13;;;;;;;1.43;0.50;;;;;;;18.44;77.50;100549.19;5000951;28;20255;-84
2022/07/01 02:44:20;;;;;;;0.90;0.70;;;;;;;18.29;76.96;100562.31;4995318;28;20223;-84
2022/07/01 02:46:47;;;;;;;0.60;0.60;;;;;;;18.24;76.91;100567.31;5000521;28;20231;-85
2022/07/01 02:49:16;;;;;;;0.93;0.70;;;;;;;18.20;76.98;100564.06;4995332;28;20706;-84
2022/07/01 02:51:42;;;;;;;0.97;0.50;;;;;;;18.15;77.11;100558.25;5003429;28;20302;-84
2022/07/01 02:54:09;;;;;;;1.53;0.80;;;;;;;18.12;76.71;100572.03;4995129;28;20235;-83
2022/07/01 02:56:36;;;;;;;1.50;1.20;;;;;;;18.08;76.56;100564.41;4997499;28;20228;-83
2022/07/01 02:59:02;;;;;;;1.57;1.30;;;;;;;18.02;76.54;100576.59;5005358;28;20294;-84
2022/07/01 03:01:29;;;;;;;1.03;1.03;;;;;;;17.99;76.48;100587.69;5000154;28;20303;-84
2022/07/01 03:03:56;;;;;;;1.30;1.13;;;;;;;17.96;76.85;100604.97;4993495;28;20211;-84
2022/07/01 03:06:24;;;;;;;1.70;1.60;;;;;;;17.93;77.24;100617.88;4994311;28;20230;-84
2022/07/01 03:08:50;;;;;;;1.53;1.43;;;;;;;17.88;76.99;100622.88;4992952;28;20218;-84
2022/07/01 03:11:17;;;;;;;2.47;1.90;;;;;;;17.87;77.45;100629.25;4996419;28;20294;-84
2022/07/01 03:13:44;;;;;;;3.17;1.87;;;;;;;17.85;77.51;100650.09;5000786;28;20234;-86
2022/07/01 03:16:11;;;;;;;2.57;1.97;;;;;;;17.81;77.54;100659.47;4994332;28;20236;-84
2022/07/01 03:18:37;;;;;;;2.17;1.97;;;;;;;17.78;77.65;100674.06;4999350;28;20220;-84
2022/07/01 03:21:04;;;;;;;2.33;1.77;;;;;;;17.76;77.66;100678.75;5002760;28;20565;-84
2022/07/01 03:23:32;;;;;;;2.53;1.80;;;;;;;17.72;77.26;100671.97;4993931;28;20204;-83
2022/07/01 03:25:59;;;;;;;4.00;1.97;;;;;;;17.65;77.03;100673.50;5006147;28;20232;-84
2022/07/01 03:28:25;;;;;;;2.30;1.30;;;;;;;17.61;76.65;100674.75;4992050;28;20590;-84
2022/07/01 03:30:52;;;;;;;3.83;1.90;;;;;;;17.56;76.84;100671.63;5003867;28;20216;-85
2022/07/01 03:33:19;;;;;;;2.83;1.73;;;;;;;17.51;76.86;100680.16;4989618;28;20320;-84
2022/07/01 03:35:46;;;;;;;3.30;1.37;;;;;;;17.49;76.88;100694.75;4992981;28;20843;-85
2022/07/01 03:38:13;;;;;;;1.80;1.47;;;;;;;17.48;77.09;100706.50;4995304;28;20214;-84
2022/07/01 03:40:40;;;;;;;1.73;1.37;;;;;;;17.45;76.81;100698.69;4993641;28;20205;-84
2022/07/01 03:43:07;;;;;;;2.07;1.30;;;;;;;17.45;77.05;100693.31;4994877;28;20868;-84
2022/07/01 03:45:34;;;;;;;1.27;1.17;;;;;;;17.46;77.56;100712.03;5003912;28;20662;-83
2022/07/01 03:48:03;;;;;;;2.17;1.40;;;;;;;17.46;78.05;100709.31;5008497;28;20248;-84
2022/07/01 03:50:30;;;;;;;1.73;1.63;;;;;;;17.45;78.07;100706.78;5001505;28;20242;-85
2022/07/01 03:55:41;;;;;;;2.63;1.60;;;;;;;17.41;78.68;100710.72;4960794;28;20203;-83
2022/07/01 03:58:08;;;;;;;2.73;1.70;;;;;;;17.38;79.22;100721.81;5002317;28;20215;-84
2022/07/01 04:00:36;;;;;;;2.33;1.63;;;;;;;17.32;79.39;100715.97;4995952;28;20214;-83
2022/07/01 04:03:03;;;;;;;5.10;1.80;;;;;;;17.28;79.72;100719.06;5000466;28;20207;-84
2022/07/01 04:05:30;;;;;;;2.97;1.97;;;;;;;17.25;80.21;100713.97;4998941;28;20218;-82
2022/07/01 04:07:56;;;;;;;2.50;1.73;;;;;;;17.22;80.49;100712.41;4988912;28;20236;-83
2022/07/01 04:10:23;;;;;;;2.53;1.60;;;;;;;17.19;80.71;100707.31;4991477;28;20210;-83
2022/07/01 04:12:51;;;;;;;2.37;1.23;;;;;;;17.16;81.02;100704.03;4991968;28;20230;-82
2022/07/01 04:15:18;;;;;;;1.63;1.50;;;;;;;17.14;81.40;100709.56;5006197;28;20665;-81
2022/07/01 04:17:44;;;;;;;1.10;1.00;;;;;;;17.10;81.27;100701.88;4994913;28;20233;-82
2022/07/01 04:20:12;;;;;;;2.60;1.30;;;;;;;17.04;81.05;100703.28;4994981;28;20229;-81
2022/07/01 04:22:37;;;;;;;2.03;1.00;;;;;;;16.98;81.11;100695.78;4999955;28;20205;-85
2022/07/01 04:25:07;;;;;;;2.10;1.37;;;;;;;16.93;81.16;100685.41;4999269;28;20236;-82
2022/07/01 04:27:33;;;;;;;2.00;1.20;;;;;;;16.89;81.54;100683.97;4994667;28;20235;-82
2022/07/01 04:30:02;;;;;;;1.30;1.10;;;;;;;16.85;81.58;100687.06;4995311;28;20220;-81
2022/07/01 04:32:29;;;;;;;2.40;1.30;;;;;;;16.83;81.62;100689.94;4987297;28;20217;-82
2022/07/01 04:34:56;;;;;;;2.47;1.17;;;;;;;16.82;82.02;100695.44;4984929;28;20258;-82
2022/07/01 04:37:23;;;;;;;1.40;1.07;;;;;;;16.81;82.12;100693.75;4989292;28;20233;-82
2022/07/01 04:39:50;;;;;;;1.03;0.93;;;;;;;16.80;82.23;100706.34;4990792;28;20584;-82
2022/07/01 04:42:18;;;;;;;4.53;1.30;;;;;;;16.79;82.32;100699.25;4988724;28;20209;-82
2022/07/01 04:44:45;;;;;;;2.40;1.13;;;;;;;16.79;82.35;100698.41;4992150;28;20305;-82
2022/07/01 04:47:13;;;;;;;1.17;1.00;;;;;;;16.78;82.18;100710.16;4992856;28;20254;-84
2022/07/01 04:49:40;;;;;;;3.43;1.43;;;;;;;16.77;82.36;100720.06;4994453;28;20292;-84
2022/07/01 04:52:07;;;;;;;1.63;1.00;;;;;;;16.79;82.92;100717.22;4988425;28;20210;-83
2022/07/01 04:54:33;;;;;;;2.37;1.43;;;;;;;16.82;83.13;100715.13;4984574;28;20240;-81
2022/07/01 04:57:00;;;;;;;2.77;1.70;;;;;;;16.83;83.14;100721.34;4991616;28;20846;-82
2022/07/01 04:59:26;;;;;;;1.90;1.37;;;;;;;16.82;83.22;100716.97;4985802;28;20218;-82
2022/07/01 05:01:53;;;;;;;4.23;2.13;;;;;;;16.82;83.23;100708.88;4984551;28;20217;-81
2022/07/01 05:04:21;;;;;;;3.10;1.50;;;;;;;16.82;83.18;100722.34;4987556;28;20614;-83
2022/07/01 05:06:47;;;;;;;2.63;1.63;;;;;;;16.82;83.11;100716.97;4987637;28;20224;-82
2022/07/01 05:09:14;;;;;;;2.60;1.73;;;;;;;16.82;83.04;100723.19;4985330;28;20206;-81
2022/07/01 05:11:41;;;;;;;2.57;1.30;;;;;;;16.81;82.99;100723.31;4978435;28;20203;-83
2022/07/01 05:14:08;;;;;;;2.33;1.60;;;;;;;16.80;82.85;100721.63;4988767;28;20218;-82
2022/07/01 05:16:35;;;;;;;3.03;1.70;;;;;;;16.78;82.88;100719.06;4988664;28;20230;-82
2022/07/01 05:21:57;;;;;;;1.57;1.33;;;;;;;16.75;83.04;100729.22;4996910;28;20214;-81
2022/07/01 05:24:25;;;;;;;2.30;1.60;;;;;;;16.75;82.97;100735.47;4992815;28;20204;-83
2022/07/01 05:26:52;;;;;;;2.13;1.60;;;;;;;16.74;82.65;100738.28;4988603;28;20726;-82
2022/07/01 05:29:18;;;;;;;1.43;1.30;;;;;;;16.73;82.65;100750.88;4994376;28;20211;-82
2022/07/01 05:31:45;;;;;;;2.13;1.60;;;;;;;16.75;82.66;100748.91;5009459;28;20229;-82
2022/07/01 05:34:12;;;;;;;3.07;1.67;;;;;;;16.78;82.60;100755.88;5006826;28;20238;-82
2022/07/01 05:36:38;;;;;;;2.57;1.60;;;;;;;16.76;81.97;100758.69;4999715;28;20230;-83
2022/07/01 05:39:06;;;;;;;1.90;1.70;;;;;;;16.75;81.76;100761.50;5005081;28;20213;-83
2022/07/01 05:41:34;;;;;;;2.93;1.70;;;;;;;16.75;81.54;100772.25;5008089;28;20469;-83
2022/07/01 05:44:00;;;;;;;3.20;1.70;;;;;;;16.72;81.25;100767.16;5009023;28;20244;-83
2022/07/01 05:46:27;;;;;;;2.33;1.77;;;;;;;16.71;80.94;100773.50;5001518;28;20227;-83
2022/07/01 05:48:54;;;;;;;2.87;1.63;;;;;;;16.72;81.01;100777.91;5008657;28;20210;-83
2022/07/01 05:51:20;;;;;;;3.10;2.10;;;;;;;16.71;80.77;100776.19;5007659;28;20282;-82
2022/07/01 05:53:47;;;;;;;3.00;2.00;;;;;;;16.71;80.25;100778.88;5010861;28;20346;-82
2022/07/01 05:56:15;;;;;;;3.83;2.00;;;;;;;16.74;80.19;100776.78;5010253;28;20246;-82
2022/07/01 05:58:42;;;;;;;2.97;2.23;;;;;;;16.75;80.18;100785.72;5014788;28;20210;-82
2022/07/01 06:01:08;;;;;;;2.30;2.10;;;;;;;16.73;79.77;100775.09;5013242;28;20742;-82
2022/07/01 06:03:35;;;;;;;2.90;2.60;;;;;;;16.72;79.69;100769.84;5002943;28;20213;-83
2022/07/01 06:06:01;;;;;;;2.67;2.47;;;;;;;16.72;79.44;100769.84;5008749;28;20369;-82
2022/07/01 06:08:28;;;;;;;3.10;2.80;;;;;;;16.72;79.23;100778.75;5008496;28;20214;-82
2022/07/01 06:10:54;;;;;;;2.80;2.60;;;;;;;16.73;79.20;100779.59;5003137;28;20665;-83
2022/07/01 06:13:22;;;;;;;3.33;2.53;;;;;;;16.72;79.02;100767.16;5011604;28;20232;-83
2022/07/01 06:15:49;;;;;;;4.70;2.73;;;;;;;16.70;79.17;100772.66;5004352;28;20215;-83
2022/07/01 06:18:15;;;;;;;2.87;2.57;;;;;;;16.74;79.20;100779.47;5013087;28;20218;-83
2022/07/01 06:20:42;;;;;;;2.97;2.77;;;;;;;16.75;79.10;100762.34;5004062;28;20230;-83
2022/07/01 06:23:08;;;;;;;2.93;2.73;;;;;;;16.75;78.75;100764.19;5012522;28;20218;-83
2022/07/01 06:25:35;;;;;;;2.63;2.43;;;;;;;16.75;78.61;100775.81;5009733;28;20208;-83
2022/07/01 06:28:02;;;;;;;3.33;3.03;;;;;;;16.74;78.86;100782.16;5004718;28;20226;-83
2022/07/01 06:30:29;;;;;;;3.50;3.20;;;;;;;16.77;78.68;100784.59;5008227;28;20211;-83
2022/07/01 06:32:56;;;;;;;3.13;2.83;;;;;;;16.77;78.93;100787.28;5008324;28;20545;-83
2022/07/01 06:35:23;;;;;;;4.00;3.20;;;;;;;16.78;78.88;100786.31;5002967;28;20209;-83
2022/07/01 06:37:49;;;;;;;3.40;3.10;;;;;;;16.82;78.96;100793.13;5005165;28;20233;-83
2022/07/01 06:40:16;;;;;;;3.80;3.40;;;;;;;16.82;78.78;100795.81;5002944;28;20462;-83
2022/07/01 06:42:42;;;;;;;5.73;3.47;;;;;;;16.83;78.70;100791.28;5006199;28;20202;-83
2022/07/01 06:45:09;;;;;;;3.83;3.53;;;;;;;16.84;78.74;100783.06;5004206;28;20218;-83
2022/07/01 06:47:37;;;;;;;4.67;3.90;;;;;;;16.83;78.47;100783.22;4997742;28;20227;-83
2022/07/01 06:50:05;;;;;;;4.83;4.30;;;;;;;16.85;78.44;100783.91;5007524;28;20286;-83
2022/07/01 06:52:32;;;;;;;4.27;3.87;;;;;;;16.87;78.18;100788.19;5001747;28;20650;-83
2022/07/01 06:54:58;;;;;;;4.53;4.13;;;;;;;16.89;78.12;100780.81;5010603;28;20230;-83
2022/07/01 06:57:25;;;;;;;5.13;4.60;;;;;;;16.91;77.90;100778.84;5016417;28;20233;-82
2022/07/01 06:59:52;;;;;;;4.40;4.00;;;;;;;16.94;77.80;100773.22;5002600;28;20213;-83
2022/07/01 07:02:18;;;;;;;4.83;4.40;;;;;;;16.99;77.64;100778.19;5011837;28;20214;-83
2022/07/01 07:04:46;;;;;;;4.47;4.07;;;;;;;17.04;77.95;100767.84;5007704;28;20214;-83
2022/07/01 07:07:12;;;;;;;4.80;4.40;;;;;;;17.10;78.13;100769.16;5004400;28;20298;-83
2022/07/01 07:09:39;;;;;;;5.27;4.63;;;;;;;17.13;78.17;100783.22;5006702;28;20206;-83
2022/07/01 07:12:06;;;;;;;5.20;4.70;;;;;;;17.16;78.00;100793.69;4996110;28;20210;-82
2022/07/01 07:14:32;;;;;;;5.47;4.97;;;;;;;17.19;77.99;100833.81;4998957;28;20310;-82
2022/07/01 07:16:59;;;;;;;4.77;4.37;;;;;;;17.21;78.02;100839.88;4999228;28;20226;-83
2022/07/01 07:19:25;;;;;;;5.47;4.97;;;;;;;17.25;78.23;100849.41;4998867;28;20206;-83
2022/07/01 07:21:53;;;;;;;6.00;5.43;;;;;;;17.29;78.37;100841.91;5000635;28;20229;-82
2022/07/01 07:24:20;;;;;;;5.37;4.83;;;;;;;17.32;78.35;100849.72;4999322;28;20215;-82
2022/07/01 07:26:47;;;;;;;5.23;4.73;;;;;;;17.33;78.45;100854.97;5003168;28;20224;-83
2022/07/01 07:29:14;;;;;;;5.63;5.13;;;;;;;17.35;78.54;100854.84;4997367;28;20214;-83
2022/07/01 07:31:40;;;;;;;6.87;5.77;;;;;;;17.36;78.53;100864.63;4999801;28;20216;-83
2022/07/01 07:34:07;;;;;;;6.80;6.20;;;;;;;17.37;78.95;100870.84;5010050;28;20235;-83
2022/07/01 07:36:33;;;;;;;7.80;5.93;;;;;;;17.40;79.18;100874.09;5006854;28;20227;-83
2022/07/01 07:39:01;;;;;;;7.07;6.30;;;;;;;17.42;79.47;100885.59;4996876;28;20218;-82
2022/07/01 07:41:28;;;;;;;7.40;6.70;;;;;;;17.44;79.81;100888.16;4999334;28;20230;-83
2022/07/01 07:43:54;;;;;;;7.93;7.23;;;;;;;17.44;79.73;100898.94;5000149;28;20210;-83
2022/07/01 07:46:21;;;;;;;8.47;7.53;;;;;;;17.45;79.91;100897.94;5002381;28;21172;-83
2022/07/01 07:48:47;;;;;;;7.07;6.47;;;;;;;17.42;80.02;100896.38;5005651;28;20211;-82
2022/07/01 07:51:16;;;;;;;7.83;6.87;;;;;;;17.41;79.86;100897.34;4997094;28;20303;-83
2022/07/01 07:53:43;;;;;;;6.87;6.30;;;;;;;17.37;79.77;100898.63;5004002;28;20277;-83
2022/07/01 07:56:11;;;;;;;7.10;6.50;;;;;;;17.34;79.80;100899.75;4997544;28;20262;-83
2022/07/01 07:58:41;;;;;;;9.40;6.60;;;;;;;17.31;79.80;100893.78;5004247;28;20300;-83
2022/07/01 08:01:08;;;;;;;6.97;6.37;;;;;;;17.29;80.03;100891.22;5007495;28;20208;-83
2022/07/01 08:03:35;;;;;;;6.23;5.63;;;;;;;17.28;79.91;100900.28;5009276;28;20206;-82
2022/07/01 08:06:01;;;;;;;6.77;6.17;;;;;;;17.27;79.97;100895.88;5004504;28;20230;-83
2022/07/01 08:08:28;;;;;;;6.90;6.30;;;;;;;17.26;80.14;100898.69;4998061;28;20217;-83
2022/07/01 08:10:55;;;;;;;6.30;5.70;;;;;;;17.26;80.16;100907.63;5000941;28;20614;-82
2022/07/01 08:13:22;;;;;;;7.30;6.60;;;;;;;17.24;80.29;100892.59;4999987;28;20216;-83
2022/07/01 08:15:49;;;;;;;7.10;6.40;;;;;;;17.22;80.13;100889.19;4999118;28;20227;-83
2022/07/01 08:18:15;;;;;;;7.77;6.33;;;;;;;17.21;80.33;100885.63;5008322;28;20200;-83
2022/07/01 08:20:42;;;;;;;7.60;6.90;;;;;;;17.18;80.30;100882.38;4990497;28;20230;-82
2022/07/01 08:23:09;;;;;;;7.20;6.60;;;;;;;17.15;80.22;100872.75;4999983;28;20214;-83
2022/07/01 08:25:35;;;;;;;8.37;7.07;;;;;;;17.15;80.48;100871.88;4992206;28;20211;-83
2022/07/01 08:28:03;;;;;;;7.90;7.10;;;;;;;17.15;80.36;100869.19;4999055;28;20222;-83
2022/07/01 08:30:31;;;;;;;8.20;6.40;;;;;;;17.12;80.21;100878.38;4998126;28;20209;-83
2022/07/01 08:32:57;;;;;;;7.27;6.57;;;;;;;17.10;80.30;100885.72;5005297;28;20216;-83
2022/07/01 08:35:24;;;;;;;6.43;5.83;;;;;;;17.10;80.37;100891.13;5002089;28;20231;-83
2022/07/01 08:37:50;;;;;;;5.13;4.63;;;;;;;17.12;80.57;100901.75;5003475;28;20236;-83
2022/07/01 08:40:17;;;;;;;4.50;3.63;;;;;;;17.11;80.16;100903.59;5003281;28;20203;-83
2022/07/01 08:42:43;;;;;;;3.20;2.90;;;;;;;17.07;79.37;100904.81;4998161;28;20218;-83
2022/07/01 08:45:10;;;;;;;4.83;3.67;;;;;;;17.05;79.12;100906.78;5003929;28;20215;-83
2022/07/01 08:47:51;;;;;;;3.80;3.40;;;;;;;17.06;79.11;100913.88;5006718;28;20231;-82
2022/07/01 08:50:18;;;;;;;4.33;3.93;;;;;;;17.05;78.93;100912.19;5002240;28;20208;-83
2022/07/01 08:52:45;;;;;;;4.87;4.33;;;;;;;17.05;78.89;100928.31;5000702;28;20657;-83
2022/07/01 08:55:11;;;;;;;5.40;4.90;;;;;;;17.06;78.91;100927.34;5002634;28;20692;-83
2022/07/01 08:57:38;;;;;;;5.40;5.00;;;;;;;17.09;78.96;100931.63;5002540;28;20231;-83
2022/07/01 09:00:06;;;;;;;5.30;4.90;;;;;;;17.12;79.04;100934.91;5001425;28;20204;-83
2022/07/01 09:02:55;;;;;;;6.10;5.60;;;;;;;17.17;78.92;100939.88;5002296;28;20228;-82
2022/07/01 09:05:23;;;;;;;5.30;4.80;;;;;;;17.18;78.92;100945.16;4998398;28;20285;-83
2022/07/01 09:07:50;;;;;;;5.40;4.90;;;;;;;17.18;78.44;100942.47;5004621;28;20227;-83
2022/07/01 09:10:19;;;;;;;5.17;4.77;;;;;;;17.18;77.94;100944.28;5004948;28;20290;-83
2022/07/01 09:12:46;;;;;;;4.90;4.50;;;;;;;17.16;77.60;100939.03;5009218;28;20207;-82
2022/07/01 09:15:31;;;;;;;5.27;4.77;;;;;;;17.17;77.49;100946.13;5002475;28;20234;-83
2022/07/01 09:18:05;;;;;;;5.80;5.10;;;;;;;17.17;76.65;100956.03;4999531;28;20762;-82
2022/07/01 09:20:34;;;;;;;5.17;4.67;;;;;;;17.18;76.67;100961.28;4998440;28;20235;-83
2022/07/01 09:23:05;;;;;;;5.80;5.30;;;;;;;17.19;76.58;100957.63;5008892;28;20210;-83
2022/07/01 09:25:37;;;;;;;7.87;5.20;;;;;;;17.19;76.07;100963.00;5010717;28;20217;-82
2022/07/01 09:28:09;;;;;;;5.17;4.77;;;;;;;17.17;75.89;100956.03;5014272;28;20234;-83
2022/07/01 09:30:36;;;;;;;4.83;4.40;;;;;;;17.19;75.59;100954.94;5000519;28;20213;-83
2022/07/01 09:33:09;;;;;;;5.17;4.77;;;;;;;17.16;75.16;100955.19;5007283;28;20203;-83
2022/07/01 09:35:36;;;;;;;5.47;4.97;;;;;;;17.19;75.21;100956.75;5003543;28;20340;-82
2022/07/01 09:38:03;;;;;;;5.13;4.73;;;;;;;17.23;75.31;100960.88;4999254;28;20231;-83
2022/07/01 09:40:52;;;;;;;5.17;4.77;;;;;;;17.30;75.25;100957.53;5006828;28;20235;-83
2022/07/01 09:43:20;;;;;;;5.40;4.90;;;;;;;17.32;74.86;100960.09;5001110;28;20228;-83
2022/07/01 09:45:52;;;;;;;6.33;5.27;;;;;;;17.36;74.71;100964.22;5006878;28;20309;-83
2022/07/01 09:48:20;;;;;;;5.73;5.23;;;;;;;17.39;74.43;100961.25;5003894;28;20213;-83
2022/07/01 09:50:46;;;;;;;7.10;5.33;;;;;;;17.43;74.24;100965.38;5008605;28;20279;-83
2022/07/01 09:53:13;;;;;;;6.00;5.50;;;;;;;17.49;74.21;100972.09;5008272;28;20218;-83
2022/07/01 09:55:40;;;;;;;7.33;6.03;;;;;;;17.52;73.74;100978.06;5011512;28;20239;-84
2022/07/01 09:58:07;;;;;;;7.03;6.33;;;;;;;17.54;73.56;100978.78;5000606;28;20259;-83
2022/07/01 10:00:36;;;;;;;7.03;6.17;;;;;;;17.57;73.19;100980.34;5011843;28;20221;-84
2022/07/01 10:03:02;;;;;;;6.73;6.07;;;;;;;17.60;73.21;100975.53;5004671;28;20300;-83
2022/07/01 10:05:34;;;;;;;7.30;6.60;;;;;;;17.64;72.92;100981.56;5005069;28;20291;-84
2022/07/01 10:08:15;;;;;;;7.03;6.33;;;;;;;17.68;72.36;100993.78;5001532;28;20243;-83
2022/07/01 10:10:49;;;;;;;7.13;6.43;;;;;;;17.72;72.40;100987.13;5000420;28;20241;-83
2022/07/01 10:13:18;;;;;;;7.23;6.53;;;;;;;17.79;72.33;100980.19;4994637;28;20229;-84
2022/07/01 10:15:48;;;;;;;6.47;5.97;;;;;;;17.86;72.35;100980.53;5003798;28;20258;-84
2022/07/01 10:18:22;;;;;;;7.13;6.43;;;;;;;17.95;72.11;100979.69;4995924;28;20275;-84
2022/07/01 10:20:51;;;;;;;6.60;5.97;;;;;;;18.00;71.45;100983.69;5003618;28;20208;-83
2022/07/01 10:23:21;;;;;;;7.70;6.50;;;;;;;18.08;71.45;100988.41;5010695;28;20224;-83
2022/07/01 10:25:49;;;;;;;7.00;6.40;;;;;;;18.14;71.43;100993.22;5005588;28;20215;-83
2022/07/01 10:28:18;;;;;;;7.07;6.20;;;;;;;18.22;71.54;100987.16;5010643;28;20231;-83
2022/07/01 10:30:56;;;;;;;6.77;6.07;;;;;;;18.27;70.74;100982.22;5007399;28;20204;-83
2022/07/01 10:33:36;;;;;;;7.17;6.47;;;;;;;18.35;70.61;100985.06;5011400;28;20280;-83
2022/07/01 10:36:09;;;;;;;7.53;6.70;;;;;;;18.41;69.99;100992.59;5003141;28;20231;-85
2022/07/01 10:38:56;;;;;;;6.87;6.27;;;;;;;18.43;69.39;100987.91;4991623;28;20211;-84
2022/07/01 10:41:24;;;;;;;7.60;6.80;;;;;;;18.45;69.01;100990.47;4991035;28;20303;-85
2022/07/01 10:43:51;;;;;;;7.97;6.27;;;;;;;18.44;69.02;100997.72;4988785;28;20221;-85
2022/07/01 10:46:40;;;;;;;7.80;7.00;;;;;;;18.46;68.62;100990.31;4997990;28;20312;-86
2022/07/01 10:49:07;;;;;;;7.33;6.63;;;;;;;18.47;68.21;100983.06;4994692;28;20293;-85
2022/07/01 10:51:47;;;;;;;7.00;6.33;;;;;;;18.47;68.94;100981.22;4996279;28;20641;-84
2022/07/01 10:54:14;;;;;;;7.40;6.60;;;;;;;18.51;68.49;100976.41;5002009;28;20913;-85
2022/07/01 10:56:41;;;;;;;8.83;7.43;;;;;;;18.52;68.25;100970.88;4993917;28;20301;-85
2022/07/01 10:59:09;;;;;;;8.03;7.00;;;;;;;18.54;68.22;100973.44;4994290;28;20213;-85
2022/07/01 11:01:37;;;;;;;8.80;7.67;;;;;;;18.56;68.02;100975.00;4997653;28;20220;-85
2022/07/01 11:04:03;;;;;;;8.23;7.53;;;;;;;18.59;68.19;100974.78;5002488;28;20449;-85
2022/07/01 11:06:35;;;;;;;8.00;7.30;;;;;;;18.61;68.00;100966.53;4996104;28;20571;-85
2022/07/01 11:09:04;;;;;;;8.37;7.13;;;;;;;18.63;67.73;100964.56;4996161;28;20561;-85
2022/07/01 11:11:31;;;;;;;7.07;6.43;;;;;;;18.68;68.18;100973.06;5008402;28;20212;-85
2022/07/01 11:13:58;;;;;;;8.67;7.87;;;;;;;18.77;68.33;100982.16;5011259;28;20225;-85
2022/07/01 11:16:25;;;;;;;8.13;7.43;;;;;;;18.83;68.09;100971.63;5008347;28;20246;-85
2022/07/01 11:18:51;;;;;;;8.97;8.07;;;;;;;18.87;67.59;100981.16;4997568;28;20709;-85
2022/07/01 11:21:18;;;;;;;8.27;7.47;;;;;;;18.87;67.22;100977.59;4995980;28;20240;-84
2022/07/01 11:23:53;;;;;;;7.83;7.00;;;;;;;18.86;67.11;100971.34;4995021;28;20212;-85
2022/07/01 11:26:23;;;;;;;8.20;7.40;;;;;;;18.87;66.80;100989.25;5009374;28;20232;-85
2022/07/01 11:28:50;;;;;;;8.67;7.87;;;;;;;18.92;67.00;100980.72;4997071;28;20352;-85
2022/07/01 11:31:28;;;;;;;7.73;7.03;;;;;;;18.95;66.59;100985.84;4994445;28;20206;-85
2022/07/01 11:33:55;;;;;;;7.13;6.43;;;;;;;18.95;65.91;100988.56;5003463;28;20227;-85
2022/07/01 11:39:24;;;;;;;7.00;6.43;;;;;;;18.90;65.17;100993.50;5007950;28;20211;-85